Time;durP1;ratioP1;P1;durP2;ratioP2;P2;SDS_P1;SDS_P2;PMS_P1;PMS_P2;Temp;Humidity;BMP_temperature;BMP_pressure;BME280_temperature;BME280_humidity;BME280_pressure;Samples;Min_cycle;Max_cycle;Signal;HPM_P1;HPM_P2
2021/04/02 00:04:26;;;;;;;;;;;5.90;99.90;;;;;;13152489;22;19918;-84
2021/04/02 00:09:27;;;;;;;;;;;6.90;99.90;;;;;;13126983;22;19985;-84
2021/04/02 00:14:28;;;;;;;;;;;4.60;99.90;;;;;;13127176;22;19937;-84
2021/04/02 00:19:30;;;;;;;;;;;4.60;99.90;;;;;;13179769;22;20292;-84
2021/04/02 00:24:31;;;;;;;;;;;4.50;99.90;;;;;;13180325;22;19997;-84
2021/04/02 00:29:32;;;;;;;;;;;4.30;99.90;;;;;;13179382;22;19918;-84
2021/04/02 00:34:34;;;;;;;;;;;4.30;99.90;;;;;;13155763;22;20301;-84
2021/04/02 00:39:35;;;;;;;;;;;4.20;99.90;;;;;;13131035;22;19922;-84
2021/04/02 00:44:36;;;;;;;;;;;4.30;99.90;;;;;;13156752;22;19924;-83
2021/04/02 00:49:37;;;;;;;;;;;4.20;99.90;;;;;;13130750;22;19925;-84
2021/04/02 00:54:38;;;;;;;;;;;4.20;99.90;;;;;;13130458;22;19918;-84
2021/04/02 00:59:41;;;;;;;;;;;5.00;99.90;;;;;;13130294;22;19929;-84
2021/04/02 01:04:42;;;;;;;;;;;4.20;99.90;;;;;;13129292;22;19922;-84
2021/04/02 01:09:44;;;;;;;;;;;4.10;99.90;;;;;;13129468;22;19985;-84
2021/04/02 01:14:45;;;;;;;;;;;4.00;99.90;;;;;;13130695;22;19918;-84
2021/04/02 01:19:49;;;;;;;;;;;6.00;99.90;;;;;;13155099;22;19929;-84
2021/04/02 01:25:09;;;;;;;;;;;3.80;99.90;;;;;;13155833;22;19922;-84
2021/04/02 01:30:10;;;;;;;;;;;3.80;99.90;;;;;;13154829;22;20305;-84
2021/04/02 01:35:15;;;;;;;;;;;3.90;99.90;;;;;;13155748;22;19960;-84
2021/04/02 01:40:16;;;;;;;;;;;3.80;99.90;;;;;;13154821;22;19918;-84
2021/04/02 01:45:18;;;;;;;;;;;4.80;99.90;;;;;;13154484;22;19984;-84
2021/04/02 01:50:20;;;;;;;;;;;3.70;99.90;;;;;;13128477;22;20307;-84
2021/04/02 01:55:22;;;;;;;;;;;5.00;99.90;;;;;;13182235;22;20235;-84
2021/04/02 02:00:29;;;;;;;;;;;3.60;99.90;;;;;;13155288;22;19992;-84
2021/04/02 02:05:31;;;;;;;;;;;3.60;99.90;;;;;;13154591;22;19954;-84
2021/04/02 02:10:33;;;;;;;;;;;3.60;99.90;;;;;;13128878;22;20052;-84
2021/04/02 02:15:38;;;;;;;;;;;5.50;99.90;;;;;;13182806;22;19941;-84
2021/04/02 02:20:41;;;;;;;;;;;3.70;99.90;;;;;;13128780;22;19923;-85
2021/04/02 02:25:42;;;;;;;;;;;5.70;99.90;;;;;;13154533;22;19962;-84
2021/04/02 02:30:44;;;;;;;;;;;3.50;99.90;;;;;;13181424;22;19973;-85
2021/04/02 02:35:45;;;;;;;;;;;3.60;99.90;;;;;;13181399;22;20268;-84
2021/04/02 02:40:46;;;;;;;;;;;3.90;99.90;;;;;;13153348;22;20317;-84
2021/04/02 02:45:48;;;;;;;;;;;5.40;99.90;;;;;;13127471;22;20345;-84
2021/04/02 02:50:52;;;;;;;;;;;3.60;99.90;;;;;;13153198;22;20274;-84
2021/04/02 02:55:54;;;;;;;;;;;3.70;99.90;;;;;;13152476;22;20343;-84
2021/04/02 03:00:55;;;;;;;;;;;3.80;99.90;;;;;;13181521;22;19989;-84
2021/04/02 03:05:57;;;;;;;;;;;3.90;99.90;;;;;;13127383;22;19918;-84
2021/04/02 03:10:59;;;;;;;;;;;4.00;99.90;;;;;;13153751;22;19918;-85
2021/04/02 03:16:00;;;;;;;;;;;4.10;99.90;;;;;;13153774;22;19918;-84
2021/04/02 03:21:02;;;;;;;;;;;4.10;99.90;;;;;;13126457;22;19922;-84
2021/04/02 03:26:04;;;;;;;;;;;4.20;99.90;;;;;;13127335;22;19924;-84
2021/04/02 03:31:05;;;;;;;;;;;5.90;99.90;;;;;;13127513;22;19929;-84
2021/04/02 03:36:08;;;;;;;;;;;4.10;99.90;;;;;;13153570;22;19945;-84
2021/04/02 03:41:11;;;;;;;;;;;4.10;99.90;;;;;;13152596;22;20005;-84
2021/04/02 03:46:13;;;;;;;;;;;4.20;99.90;;;;;;13153114;22;19924;-85
2021/04/02 03:51:17;;;;;;;;;;;4.40;99.90;;;;;;13153142;22;20111;-84
2021/04/02 03:56:21;;;;;;;;;;;4.20;99.90;;;;;;13152248;22;19923;-84
2021/04/02 04:01:26;;;;;;;;;;;4.40;99.90;;;;;;13152194;22;20339;-84
2021/04/02 04:06:29;;;;;;;;;;;4.10;99.90;;;;;;13153289;22;19997;-84
2021/04/02 04:11:31;;;;;;;;;;;4.20;99.90;;;;;;13156870;22;20317;-84
2021/04/02 04:16:35;;;;;;;;;;;4.50;99.90;;;;;;13157370;22;19918;-85
2021/04/02 04:21:37;;;;;;;;;;;4.10;99.90;;;;;;13157132;22;19994;-84
2021/04/02 04:26:39;;;;;;;;;;;4.20;99.90;;;;;;13156865;22;19918;-84
2021/04/02 04:31:41;;;;;;;;;;;4.20;99.90;;;;;;13130342;22;19925;-84
2021/04/02 04:36:44;;;;;;;;;;;5.30;99.90;;;;;;13156847;22;19925;-84
2021/04/02 04:41:46;;;;;;;;;;;4.40;99.90;;;;;;13183667;22;19928;-85
2021/04/02 04:46:47;;;;;;;;;;;4.50;99.90;;;;;;13129291;22;19925;-84
2021/04/02 04:51:49;;;;;;;;;;;4.40;99.90;;;;;;13184193;22;19953;-84
2021/04/02 04:56:52;;;;;;;;;;;5.40;99.90;;;;;;13156293;22;19922;-85
2021/04/02 05:01:54;;;;;;;;;;;5.90;99.90;;;;;;13157103;22;19949;-85
2021/04/02 05:06:57;;;;;;;;;;;5.10;99.90;;;;;;13185744;22;19931;-84
2021/04/02 05:11:59;;;;;;;;;;;4.30;99.90;;;;;;13159162;22;19937;-84
2021/04/02 05:17:01;;;;;;;;;;;4.10;99.90;;;;;;13186117;22;19918;-83
2021/04/02 05:22:03;;;;;;;;;;;4.10;99.90;;;;;;13158589;22;19922;-85
2021/04/02 05:27:05;;;;;;;;;;;4.00;99.90;;;;;;13184862;22;20371;-84
2021/04/02 05:32:06;;;;;;;;;;;4.00;99.90;;;;;;13155425;22;19918;-85
2021/04/02 05:37:07;;;;;;;;;;;4.00;99.90;;;;;;13129847;22;19918;-85
2021/04/02 05:42:09;;;;;;;;;;;4.10;99.90;;;;;;13155792;22;19925;-84
2021/04/02 05:47:11;;;;;;;;;;;4.10;99.90;;;;;;13155288;22;19971;-84
2021/04/02 05:52:12;;;;;;;;;;;4.40;99.90;;;;;;13129632;22;19993;-84
2021/04/02 05:57:14;;;;;;;;;;;4.10;99.90;;;;;;13183004;22;19946;-85
2021/04/02 06:02:16;;;;;;;;;;;4.20;99.90;;;;;;13154308;22;20246;-84
2021/04/02 06:07:17;;;;;;;;;;;4.30;99.90;;;;;;13115132;22;20247;-85
2021/04/02 06:12:22;;;;;;;;;;;4.40;99.90;;;;;;13116592;22;19985;-86
2021/04/02 06:17:24;;;;;;;;;;;6.40;99.90;;;;;;13117187;22;19919;-86
2021/04/02 06:22:25;;;;;;;;;;;5.00;99.90;;;;;;13115714;22;19957;-86
2021/04/02 06:27:28;;;;;;;;;;;5.90;99.90;;;;;;13088934;22;20243;-86
2021/04/02 06:32:37;;;;;;;;;;;9.20;99.90;;;;;;13117100;22;19942;-86
2021/04/02 06:37:39;;;;;;;;;;;11.00;99.90;;;;;;13114844;22;20374;-86
2021/04/02 06:42:42;;;;;;;;;;;11.60;99.90;;;;;;13114668;22;20316;-86
2021/04/02 06:47:44;;;;;;;;;;;11.40;99.80;;;;;;13115064;22;19929;-86
2021/04/02 06:52:49;;;;;;;;;;;8.70;99.90;;;;;;13115279;22;19919;-86
2021/04/02 06:57:52;;;;;;;;;;;8.00;99.90;;;;;;13114551;22;19918;-87
2021/04/02 07:02:54;;;;;;;;;;;8.80;99.90;;;;;;13115269;22;20017;-86
2021/04/02 07:08:21;;;;;;;;;;;8.80;99.90;;;;;;13113850;22;20239;-86
2021/04/02 07:13:26;;;;;;;;;;;9.10;99.90;;;;;;13108304;22;20258;-87
2021/04/02 07:18:29;;;;;;;;;;;9.80;99.90;;;;;;13114636;22;19922;-87
2021/04/02 07:23:31;;;;;;;;;;;10.00;99.90;;;;;;13114741;22;19945;-87
2021/04/02 07:28:32;;;;;;;;;;;10.00;99.90;;;;;;13113462;22;19918;-87
2021/04/02 07:33:36;;;;;;;;;;;10.50;99.90;;;;;;13116158;22;19922;-86
2021/04/02 07:38:38;;;;;;;;;;;9.80;99.90;;;;;;13114493;22;19950;-86
2021/04/02 07:43:49;;;;;;;;;;;9.90;99.90;;;;;;13114255;22;19919;-87
2021/04/02 07:48:59;;;;;;;;;;;9.80;99.90;;;;;;13113958;22;19919;-87
2021/04/02 07:54:00;;;;;;;;;;;9.40;99.90;;;;;;13114330;22;20006;-86
2021/04/02 07:59:04;;;;;;;;;;;9.70;99.90;;;;;;13113386;22;20047;-86
2021/04/02 08:04:05;;;;;;;;;;;10.30;99.90;;;;;;13124297;22;19993;-87
2021/04/02 08:09:07;;;;;;;;;;;10.80;99.90;;;;;;13153784;22;19922;-87
2021/04/02 08:14:11;;;;;;;;;;;11.40;99.90;;;;;;13154200;22;20243;-86
2021/04/02 08:19:18;;;;;;;;;;;9.60;99.90;;;;;;13152011;22;19929;-86
2021/04/02 08:24:21;;;;;;;;;;;8.70;99.90;;;;;;13152012;22;20332;-86
2021/04/02 08:29:24;;;;;;;;;;;10.50;99.90;;;;;;13152752;22;20007;-85
2021/04/02 08:34:26;;;;;;;;;;;9.70;99.90;;;;;;13179777;22;20628;-86
2021/04/02 08:39:28;;;;;;;;;;;9.90;99.90;;;;;;13179511;22;19957;-86
2021/04/02 08:44:40;;;;;;;;;;;8.60;99.90;;;;;;13126424;22;19918;-85
2021/04/02 08:49:42;;;;;;;;;;;8.50;99.90;;;;;;13153353;22;19985;-86
2021/04/02 08:54:44;;;;;;;;;;;8.60;99.90;;;;;;13156129;22;20223;-85
2021/04/02 08:59:47;;;;;;;;;;;9.80;99.90;;;;;;13155736;22;19993;-86
2021/04/02 09:04:48;;;;;;;;;;;9.30;99.90;;;;;;13155854;22;19918;-86
2021/04/02 09:09:50;;;;;;;;;;;9.50;99.90;;;;;;13155489;22;19949;-86
2021/04/02 09:14:52;;;;;;;;;;;8.70;99.90;;;;;;13156190;22;19985;-86
2021/04/02 09:19:53;;;;;;;;;;;9.90;99.90;;;;;;13129274;22;19922;-85
2021/04/02 09:24:55;;;;;;;;;;;9.40;99.90;;;;;;13155273;22;20286;-85
2021/04/02 09:29:56;;;;;;;;;;;9.20;99.90;;;;;;13130030;22;19946;-85
2021/04/02 09:34:58;;;;;;;;;;;;;;;;;;13154984;22;20004;-85
2021/04/02 09:40:02;;;;;;;;;;;8.40;99.90;;;;;;13155569;22;19993;-85
2021/04/02 09:45:04;;;;;;;;;;;8.40;99.90;;;;;;13155498;22;19919;-85
2021/04/02 09:50:07;;;;;;;;;;;8.90;99.90;;;;;;13154618;22;20541;-85
2021/04/02 09:55:09;;;;;;;;;;;;;;;;;;13155290;22;19926;-85
2021/04/02 10:00:10;;;;;;;;;;;;;;;;;;13154622;22;20024;-85
2021/04/02 10:05:12;;;;;;;;;;;;;;;;;;13154437;22;19961;-86
2021/04/02 10:10:14;;;;;;;;;;;;;;;;;;13183081;22;20018;-85
2021/04/02 10:15:16;;;;;;;;;;;;;;;;;;13154923;22;19983;-85
2021/04/02 10:20:17;;;;;;;;;;;;;;;;;;13154772;22;19925;-85
2021/04/02 10:25:19;;;;;;;;;;;8.40;99.90;;;;;;13154680;22;19929;-86
2021/04/02 10:30:20;;;;;;;;;;;8.30;99.90;;;;;;13153648;22;19941;-85
2021/04/02 10:35:22;;;;;;;;;;;8.40;99.90;;;;;;13154158;22;19955;-86
2021/04/02 10:40:23;;;;;;;;;;;8.30;99.90;;;;;;13127786;22;19932;-86
2021/04/02 10:45:24;;;;;;;;;;;8.10;99.90;;;;;;13127955;22;20000;-86
2021/04/02 10:50:26;;;;;;;;;;;8.20;99.90;;;;;;13127631;22;20282;-85
2021/04/02 10:55:27;;;;;;;;;;;8.60;99.90;;;;;;13128295;22;19990;-85
2021/04/02 11:00:28;;;;;;;;;;;9.20;99.90;;;;;;13153337;22;20358;-85
2021/04/02 11:05:30;;;;;;;;;;;9.00;99.90;;;;;;13126858;22;19919;-86
2021/04/02 11:10:32;;;;;;;;;;;9.30;99.00;;;;;;13153959;22;19985;-85
2021/04/02 11:15:33;;;;;;;;;;;10.10;98.50;;;;;;13153446;22;19922;-86
2021/04/02 11:20:35;;;;;;;;;;;10.30;96.30;;;;;;13153666;22;19918;-85
2021/04/02 11:25:36;;;;;;;;;;;10.00;96.40;;;;;;13153426;22;20052;-85
2021/04/02 11:30:37;;;;;;;;;;;10.50;97.00;;;;;;13126756;22;19922;-86
2021/04/02 11:35:39;;;;;;;;;;;10.60;93.40;;;;;;13180414;22;19981;-86
2021/04/02 11:40:40;;;;;;;;;;;10.10;96.60;;;;;;13127640;22;19918;-86
2021/04/02 11:45:42;;;;;;;;;;;10.60;94.40;;;;;;13153269;22;20004;-85
2021/04/02 11:50:43;;;;;;;;;;;10.30;96.10;;;;;;13153127;22;19945;-85
2021/04/02 11:55:44;;;;;;;;;;;10.80;94.60;;;;;;13152448;22;19919;-86
2021/04/02 12:00:45;;;;;;;;;;;12.00;91.90;;;;;;13153176;22;19957;-86
2021/04/02 12:05:47;;;;;;;;;;;12.30;90.60;;;;;;13152293;22;20212;-86
2021/04/02 12:10:48;;;;;;;;;;;11.90;88.30;;;;;;13153174;22;19922;-86
2021/04/02 12:15:49;;;;;;;;;;;11.20;91.30;;;;;;13152492;22;20370;-87
2021/04/02 12:20:51;;;;;;;;;;;11.10;93.20;;;;;;13126935;22;19989;-86
2021/04/02 12:25:52;;;;;;;;;;;11.90;93.70;;;;;;13179409;22;19929;-86
2021/04/02 12:30:53;;;;;;;;;;;12.40;90.30;;;;;;13183848;22;19997;-86
2021/04/02 12:35:55;;;;;;;;;;;12.30;87.10;;;;;;13157243;22;19946;-86
2021/04/02 12:40:57;;;;;;;;;;;11.60;89.90;;;;;;13156918;22;19918;-86
2021/04/02 12:45:58;;;;;;;;;;;11.20;92.00;;;;;;13130074;22;20319;-86
2021/04/02 12:51:00;;;;;;;;;;;11.20;91.30;;;;;;13130911;22;19993;-86
2021/04/02 12:56:02;;;;;;;;;;;11.20;91.80;;;;;;13183616;22;20335;-86
2021/04/02 13:01:03;;;;;;;;;;;10.50;91.10;;;;;;13156574;22;19918;-86
2021/04/02 13:06:05;;;;;;;;;;;10.80;92.80;;;;;;13129281;22;20428;-86
2021/04/02 13:11:07;;;;;;;;;;;11.20;92.60;;;;;;13156430;22;19970;-86
2021/04/02 13:16:08;;;;;;;;;;;10.40;94.30;;;;;;13155494;22;19997;-86
2021/04/02 13:21:10;;;;;;;;;;;10.20;95.70;;;;;;13129673;22;19982;-87
2021/04/02 13:26:11;;;;;;;;;;;9.90;95.10;;;;;;13183492;22;19953;-86
2021/04/02 13:31:12;;;;;;;;;;;10.50;94.70;;;;;;13129226;22;19981;-86
2021/04/02 13:36:19;;;;;;;;;;;10.10;92.50;;;;;;13155928;22;19996;-86
2021/04/02 13:41:20;;;;;;;;;;;10.00;94.70;;;;;;13154345;22;20247;-87
2021/04/02 13:46:22;;;;;;;;;;;9.90;95.20;;;;;;13155395;22;19922;-86
2021/04/02 13:51:23;;;;;;;;;;;9.70;96.10;;;;;;13182325;22;19922;-86
2021/04/02 13:56:24;;;;;;;;;;;9.70;96.40;;;;;;13129733;22;19919;-86
2021/04/02 14:01:25;;;;;;;;;;;9.40;97.70;;;;;;13155167;22;19997;-86
2021/04/02 14:06:26;;;;;;;;;;;9.70;97.00;;;;;;13154031;22;19919;-86
2021/04/02 14:11:28;;;;;;;;;;;9.60;98.10;;;;;;13155208;22;19989;-86
2021/04/02 14:16:29;;;;;;;;;;;9.30;98.50;;;;;;13182744;22;19930;-86
2021/04/02 14:21:30;;;;;;;;;;;9.20;98.50;;;;;;13154107;22;20305;-86
2021/04/02 14:26:31;;;;;;;;;;;9.20;98.80;;;;;;13153911;22;19929;-86
2021/04/02 14:31:33;;;;;;;;;;;9.20;99.20;;;;;;13154875;22;19993;-86
2021/04/02 14:36:34;;;;;;;;;;;9.40;99.70;;;;;;13127858;22;20324;-85
2021/04/02 14:41:35;;;;;;;;;;;9.10;99.50;;;;;;13128617;22;19945;-86
2021/04/02 14:46:37;;;;;;;;;;;9.40;99.60;;;;;;13153721;22;19922;-86
2021/04/02 14:51:39;;;;;;;;;;;9.80;98.00;;;;;;13183023;22;19925;-86
2021/04/02 14:56:40;;;;;;;;;;;9.30;99.80;;;;;;13154283;22;19996;-86
2021/04/02 15:01:41;;;;;;;;;;;9.50;99.90;;;;;;13154112;22;19918;-86
2021/04/02 15:06:42;;;;;;;;;;;9.30;99.40;;;;;;13152673;22;19952;-86
2021/04/02 15:11:44;;;;;;;;;;;9.10;99.10;;;;;;13181660;22;19950;-86
2021/04/02 15:16:45;;;;;;;;;;;8.90;99.90;;;;;;13153784;22;19918;-86
2021/04/02 15:21:46;;;;;;;;;;;9.30;99.90;;;;;;13152631;22;19922;-86
2021/04/02 15:26:47;;;;;;;;;;;8.80;99.90;;;;;;13153518;22;19928;-86
2021/04/02 15:31:49;;;;;;;;;;;10.10;99.90;;;;;;13126539;22;19953;-86
2021/04/02 15:36:50;;;;;;;;;;;8.40;99.90;;;;;;13127419;22;19922;-85
2021/04/02 15:41:51;;;;;;;;;;;8.70;99.90;;;;;;13127667;22;19993;-86
2021/04/02 15:46:52;;;;;;;;;;;8.50;99.90;;;;;;13179934;22;20203;-86
2021/04/02 15:51:54;;;;;;;;;;;8.40;99.90;;;;;;13153280;22;19994;-85
2021/04/02 15:56:55;;;;;;;;;;;8.40;99.90;;;;;;13127314;22;19925;-86
2021/04/02 16:01:56;;;;;;;;;;;8.50;99.90;;;;;;13179917;22;19922;-86
2021/04/02 16:06:58;;;;;;;;;;;8.40;99.90;;;;;;13152045;22;20005;-85
2021/04/02 16:11:59;;;;;;;;;;;8.50;99.90;;;;;;13126181;22;20330;-86
2021/04/02 16:17:01;;;;;;;;;;;8.40;99.90;;;;;;13152201;22;20365;-87
2021/04/02 16:22:02;;;;;;;;;;;8.30;99.90;;;;;;13152147;22;19922;-85
2021/04/02 16:27:05;;;;;;;;;;;8.50;99.90;;;;;;13180344;22;19919;-86
2021/04/02 16:32:07;;;;;;;;;;;8.50;99.80;;;;;;13179763;22;19918;-85
2021/04/02 16:37:08;;;;;;;;;;;8.30;99.40;;;;;;13126043;22;20321;-85
2021/04/02 16:42:09;;;;;;;;;;;8.40;99.70;;;;;;13126739;22;19998;-86
2021/04/02 16:47:10;;;;;;;;;;;8.40;99.90;;;;;;13152489;22;19997;-86
2021/04/02 16:52:12;;;;;;;;;;;8.50;99.90;;;;;;13179357;22;20328;-86
2021/04/02 16:57:13;;;;;;;;;;;8.30;99.90;;;;;;13180177;22;19928;-85
2021/04/02 17:02:15;;;;;;;;;;;9.00;99.90;;;;;;13126444;22;19925;-85
2021/04/02 17:07:16;;;;;;;;;;;8.20;99.90;;;;;;13125452;22;19919;-86
2021/04/02 17:12:18;;;;;;;;;;;8.10;99.90;;;;;;13127830;22;20009;-85
2021/04/02 17:17:23;;;;;;;;;;;8.00;99.90;;;;;;13183700;22;19925;-85
2021/04/02 17:22:25;;;;;;;;;;;7.90;99.90;;;;;;13182896;22;19964;-85
2021/04/02 17:27:26;;;;;;;;;;;8.00;99.90;;;;;;13129650;22;19993;-86
2021/04/02 17:32:28;;;;;;;;;;;8.10;99.90;;;;;;13129116;22;20308;-85
2021/04/02 17:37:30;;;;;;;;;;;8.90;99.90;;;;;;13155752;22;19968;-85
2021/04/02 17:42:31;;;;;;;;;;;7.80;99.90;;;;;;13129406;22;19945;-85
2021/04/02 17:47:32;;;;;;;;;;;7.80;99.90;;;;;;13155456;22;19925;-86
2021/04/02 17:52:33;;;;;;;;;;;7.60;99.90;;;;;;13183256;22;19989;-85
2021/04/02 17:57:36;;;;;;;;;;;7.40;99.90;;;;;;13155377;22;19990;-85
2021/04/02 18:02:37;;;;;;;;;;;7.20;99.90;;;;;;13182770;22;20370;-85
2021/04/02 18:07:39;;;;;;;;;;;7.20;99.90;;;;;;13181879;22;19929;-84
2021/04/02 18:12:40;;;;;;;;;;;7.20;99.90;;;;;;13155713;22;19922;-84
2021/04/02 18:17:42;;;;;;;;;;;8.40;99.90;;;;;;13154479;22;20386;-85
2021/04/02 18:22:44;;;;;;;;;;;7.40;99.90;;;;;;13154253;22;19989;-84
2021/04/02 18:27:46;;;;;;;;;;;7.30;99.90;;;;;;13128199;22;20004;-85
2021/04/02 18:32:47;;;;;;;;;;;7.40;99.90;;;;;;13154060;22;19929;-84
2021/04/02 18:37:49;;;;;;;;;;;7.30;99.90;;;;;;13154091;22;19945;-84
2021/04/02 18:42:50;;;;;;;;;;;7.20;99.90;;;;;;13181489;22;19958;-84
2021/04/02 18:47:52;;;;;;;;;;;7.20;99.90;;;;;;13182195;22;19960;-85
2021/04/02 18:52:53;;;;;;;;;;;7.20;99.90;;;;;;13154789;22;19964;-85
2021/04/02 18:57:55;;;;;;;;;;;7.20;99.90;;;;;;13153631;22;19919;-85
2021/04/02 19:02:57;;;;;;;;;;;7.40;99.90;;;;;;13154522;22;19953;-85
2021/04/02 19:07:58;;;;;;;;;;;7.20;99.90;;;;;;13183436;22;19953;-85
2021/04/02 19:13:00;;;;;;;;;;;7.20;99.90;;;;;;13182150;22;19941;-84
2021/04/02 19:18:03;;;;;;;;;;;7.10;99.90;;;;;;13183109;22;20269;-84
2021/04/02 19:23:04;;;;;;;;;;;7.10;99.90;;;;;;13155301;22;19952;-84
2021/04/02 19:28:06;;;;;;;;;;;7.10;99.90;;;;;;13183242;22;19971;-85
2021/04/02 19:33:07;;;;;;;;;;;7.10;99.90;;;;;;13155600;22;20269;-85
2021/04/02 19:38:10;;;;;;;;;;;7.10;99.90;;;;;;13182318;22;19922;-85
2021/04/02 19:43:11;;;;;;;;;;;7.60;99.90;;;;;;13183302;22;19953;-85
2021/04/02 19:48:12;;;;;;;;;;;7.00;99.90;;;;;;13152336;22;20211;-84
2021/04/02 19:53:14;;;;;;;;;;;7.40;99.90;;;;;;13180236;22;20330;-85
2021/04/02 19:58:16;;;;;;;;;;;7.00;99.90;;;;;;13127396;22;19926;-85
2021/04/02 20:03:17;;;;;;;;;;;7.80;99.90;;;;;;13180856;22;19937;-85
2021/04/02 20:08:18;;;;;;;;;;;7.00;99.90;;;;;;13152201;22;20020;-85
2021/04/02 20:13:20;;;;;;;;;;;7.00;99.90;;;;;;13180114;22;19922;-85
2021/04/02 20:18:21;;;;;;;;;;;6.90;99.90;;;;;;13180041;22;20238;-85
2021/04/02 20:23:22;;;;;;;;;;;6.90;99.90;;;;;;13180823;22;19988;-85
2021/04/02 20:28:24;;;;;;;;;;;8.00;99.90;;;;;;13152056;22;20335;-85
2021/04/02 20:33:25;;;;;;;;;;;7.00;99.90;;;;;;13127210;22;20024;-85
2021/04/02 20:38:28;;;;;;;;;;;6.90;99.90;;;;;;13153703;22;19940;-85
2021/04/02 20:43:30;;;;;;;;;;;6.80;99.90;;;;;;13152634;22;19925;-85
2021/04/02 20:48:31;;;;;;;;;;;6.90;99.90;;;;;;13153155;22;19918;-84
2021/04/02 20:53:33;;;;;;;;;;;7.00;99.90;;;;;;13131054;22;19936;-85
2021/04/02 20:58:34;;;;;;;;;;;6.90;99.90;;;;;;13155953;22;20261;-85
2021/04/02 21:03:36;;;;;;;;;;;6.80;99.90;;;;;;13156355;22;19993;-85
2021/04/02 21:08:39;;;;;;;;;;;6.80;99.90;;;;;;13155589;22;20293;-85
2021/04/02 21:13:40;;;;;;;;;;;7.10;99.90;;;;;;13130238;22;20000;-85
2021/04/02 21:18:41;;;;;;;;;;;6.60;99.90;;;;;;13155286;22;20243;-85
2021/04/02 21:23:42;;;;;;;;;;;6.40;99.90;;;;;;13155598;22;19918;-85
2021/04/02 21:28:44;;;;;;;;;;;6.80;99.90;;;;;;13155288;22;20355;-85
2021/04/02 21:33:45;;;;;;;;;;;6.50;99.90;;;;;;13156417;22;19941;-85
2021/04/02 21:38:47;;;;;;;;;;;6.00;99.90;;;;;;13156156;22;19925;-85
2021/04/02 21:43:48;;;;;;;;;;;5.90;99.90;;;;;;13177671;22;19929;-84
2021/04/02 21:48:49;;;;;;;;;;;5.90;99.90;;;;;;13182776;22;19918;-85
2021/04/02 21:53:51;;;;;;;;;;;6.10;99.90;;;;;;13129050;22;19918;-85
2021/04/02 21:58:52;;;;;;;;;;;5.80;99.90;;;;;;13181930;22;20247;-85
2021/04/02 22:03:53;;;;;;;;;;;5.90;99.90;;;;;;13128542;22;19952;-85
2021/04/02 22:08:54;;;;;;;;;;;5.90;99.90;;;;;;13183033;22;19995;-85
2021/04/02 22:13:55;;;;;;;;;;;6.00;99.90;;;;;;13182283;22;20005;-85
2021/04/02 22:19:01;;;;;;;;;;;6.10;99.90;;;;;;13155146;22;19954;-85
2021/04/02 22:24:02;;;;;;;;;;;6.20;99.90;;;;;;13154895;22;19938;-85
2021/04/02 22:29:07;;;;;;;;;;;6.20;99.90;;;;;;13154592;22;19922;-85
2021/04/02 22:34:09;;;;;;;;;;;6.30;99.90;;;;;;13154886;22;19994;-85
2021/04/02 22:39:10;;;;;;;;;;;6.30;99.90;;;;;;13128525;22;19925;-85
2021/04/02 22:44:12;;;;;;;;;;;6.30;99.90;;;;;;13181323;22;20331;-85
2021/04/02 22:49:13;;;;;;;;;;;6.40;99.90;;;;;;13154464;22;19922;-85
2021/04/02 22:54:14;;;;;;;;;;;6.30;99.90;;;;;;13153847;22;19918;-85
2021/04/02 22:59:16;;;;;;;;;;;7.70;99.90;;;;;;13127479;22;19968;-85
2021/04/02 23:04:17;;;;;;;;;;;6.20;99.90;;;;;;13153244;22;19941;-85
2021/04/02 23:09:18;;;;;;;;;;;6.00;99.90;;;;;;13127003;22;20009;-85
2021/04/02 23:14:19;;;;;;;;;;;6.20;99.90;;;;;;13181509;22;19989;-85
2021/04/02 23:19:21;;;;;;;;;;;6.10;99.90;;;;;;13180915;22;19918;-85
2021/04/02 23:24:22;;;;;;;;;;;7.60;99.90;;;;;;13127882;22;19922;-85
2021/04/02 23:29:23;;;;;;;;;;;6.10;99.90;;;;;;13126865;22;20315;-85
2021/04/02 23:34:25;;;;;;;;;;;6.00;99.90;;;;;;13153725;22;19918;-85
2021/04/02 23:39:26;;;;;;;;;;;6.10;99.90;;;;;;13153465;22;19989;-85
2021/04/02 23:44:27;;;;;;;;;;;5.80;99.90;;;;;;13152615;22;19961;-85
2021/04/02 23:49:28;;;;;;;;;;;5.70;99.90;;;;;;13153515;22;19993;-85
2021/04/02 23:54:29;;;;;;;;;;;5.70;99.90;;;;;;13153503;22;19956;-85
2021/04/02 23:59:31;;;;;;;;;;;5.50;99.90;;;;;;13126564;22;20339;-85
